createdAt,value
2023-03-30T00:01:56.608Z,100009.06
2023-03-30T00:04:27.311Z,99992.56
2023-03-30T00:06:54.727Z,100006.41
2023-03-30T00:09:22.872Z,100005.59
2023-03-30T00:11:50.265Z,100004.78
2023-03-30T00:14:18.378Z,100005.63
2023-03-30T00:16:45.246Z,100009.38
2023-03-30T00:19:12.254Z,100002.53
2023-03-30T00:21:39.290Z,100004.19
2023-03-30T00:24:06.358Z,99979.78
2023-03-30T00:26:33.477Z,99985.16
2023-03-30T00:29:00.260Z,99993.47
2023-03-30T00:31:27.689Z,99990.16
2023-03-30T00:33:54.542Z,99985.63
2023-03-30T00:36:22.579Z,100004.66
2023-03-30T00:38:49.526Z,100007.00
2023-03-30T00:41:16.766Z,100000.78
2023-03-30T00:44:04.854Z,100009.72
2023-03-30T00:46:32.288Z,100005.84
2023-03-30T00:49:08.845Z,99982.06
2023-03-30T00:51:39.078Z,100003.81
2023-03-30T00:54:16.837Z,99991.38
2023-03-30T00:56:43.902Z,99982.91
2023-03-30T00:59:11.289Z,99999.84
2023-03-30T01:01:40.581Z,99993.84
2023-03-30T01:04:09.922Z,99976.69
2023-03-30T01:06:40.350Z,99999.84
2023-03-30T01:09:08.742Z,100002.56
2023-03-30T01:11:36.052Z,99975.06
2023-03-30T01:14:10.126Z,99993.88
2023-03-30T01:16:55.908Z,99992.41
2023-03-30T01:19:44.810Z,99997.84
2023-03-30T01:22:39.692Z,99997.03
2023-03-30T01:25:45.438Z,100010.72
2023-03-30T01:28:37.305Z,100004.09
2023-03-30T01:31:25.796Z,100004.34
2023-03-30T01:34:40.092Z,99995.88
2023-03-30T01:37:15.958Z,100004.53
2023-03-30T01:39:54.979Z,100006.00
2023-03-30T01:42:39.930Z,100011.38
2023-03-30T01:45:13.724Z,100008.69
2023-03-30T01:47:59.246Z,100005.81
2023-03-30T01:50:31.987Z,100006.44
2023-03-30T01:53:10.410Z,100001.69
2023-03-30T01:56:00.711Z,100011.19
2023-03-30T01:58:36.155Z,99966.34
2023-03-30T02:01:06.924Z,100001.25
2023-03-30T02:03:38.984Z,99988.00
2023-03-30T02:06:15.465Z,99995.91
2023-03-30T02:08:44.895Z,100007.28
2023-03-30T02:11:12.952Z,99985.34
2023-03-30T02:13:42.453Z,100000.88
2023-03-30T02:16:15.601Z,100012.06
2023-03-30T02:18:45.678Z,99998.81
2023-03-30T02:21:13.197Z,100007.56
2023-03-30T02:23:45.401Z,100009.44
2023-03-30T02:26:13.993Z,100012.13
2023-03-30T02:28:40.978Z,100014.81
2023-03-30T02:31:16.459Z,100015.44
2023-03-30T02:34:02.738Z,100016.88
2023-03-30T02:36:45.624Z,99975.31
2023-03-30T02:39:50.747Z,100021.03
2023-03-30T02:42:50.580Z,99991.03
2023-03-30T02:45:43.053Z,100016.69
2023-03-30T02:48:28.361Z,100022.69
2023-03-30T02:51:39.126Z,100023.72
2023-03-30T02:54:30.750Z,100034.50
2023-03-30T02:57:34.248Z,100043.59
2023-03-30T03:00:36.288Z,100027.25
2023-03-30T03:03:12.833Z,100027.03
2023-03-30T03:05:42.941Z,100023.94
2023-03-30T03:08:14.884Z,100033.66
2023-03-30T03:10:42.951Z,100032.00
2023-03-30T03:13:11.029Z,100036.16
2023-03-30T03:15:44.917Z,100040.69
2023-03-30T03:18:12.972Z,100043.81
2023-03-30T03:20:41.216Z,100045.66
2023-03-30T03:23:08.542Z,100040.28
2023-03-30T03:25:48.645Z,100026.19
2023-03-30T03:28:31.338Z,100040.06
2023-03-30T03:31:06.884Z,100031.34
2023-03-30T03:33:34.853Z,100048.53
2023-03-30T03:36:12.254Z,100042.75
2023-03-30T03:39:01.158Z,100061.78
2023-03-30T03:41:28.581Z,100056.19
2023-03-30T03:43:55.640Z,100063.03
2023-03-30T03:46:22.662Z,100051.25
2023-03-30T03:48:49.791Z,100053.72
2023-03-30T03:51:17.037Z,100070.06
2023-03-30T03:53:44.072Z,100074.38
2023-03-30T03:56:14.578Z,100072.53
2023-03-30T03:58:41.606Z,100078.72
2023-03-30T04:03:35.635Z,100064.28
2023-03-30T04:06:02.860Z,100075.00
2023-03-30T04:08:30.529Z,100061.34
2023-03-30T04:11:08.284Z,100050.59
2023-03-30T04:14:04.543Z,100076.69
2023-03-30T04:16:57.889Z,100087.84
2023-03-30T04:19:43.581Z,100076.88
2023-03-30T04:22:26.322Z,100086.59
2023-03-30T04:25:07.041Z,100087.44
2023-03-30T04:28:05.194Z,100100.69
2023-03-30T04:31:13.112Z,100091.19
2023-03-30T04:33:52.273Z,100098.84
2023-03-30T04:36:38.115Z,100093.25
2023-03-30T04:39:37.546Z,100099.06
2023-03-30T04:42:04.733Z,100113.97
2023-03-30T04:44:43.072Z,100123.09
2023-03-30T04:47:21.567Z,100126.41
2023-03-30T04:50:16.087Z,100123.50
2023-03-30T04:53:03.484Z,100132.22
2023-03-30T04:55:30.217Z,100134.06
2023-03-30T04:58:22.112Z,100133.44
2023-03-30T05:01:07.519Z,100128.66
2023-03-30T05:03:49.864Z,100147.91
2023-03-30T05:06:28.010Z,100150.41
2023-03-30T05:09:14.965Z,100140.25
2023-03-30T05:12:04.976Z,100143.09
2023-03-30T05:14:44.122Z,100121.53
2023-03-30T05:17:33.855Z,100154.78
2023-03-30T05:20:18.407Z,100146.44
2023-03-30T05:23:03.498Z,100144.94
2023-03-30T05:25:50.498Z,100156.88
2023-03-30T05:28:36.108Z,100146.22
2023-03-30T05:31:38.193Z,100160.53
2023-03-30T05:34:31.460Z,100147.03
2023-03-30T05:37:11.555Z,100146.13
2023-03-30T05:39:43.624Z,100158.53
2023-03-30T05:42:36.876Z,100158.00
2023-03-30T05:45:30.214Z,100146.31
2023-03-30T05:48:17.613Z,100141.47
2023-03-30T05:51:08.400Z,100151.03
2023-03-30T05:53:48.554Z,100144.69
2023-03-30T05:56:37.402Z,100143.59
2023-03-30T05:59:37.522Z,100141.88
2023-03-30T06:02:17.893Z,100138.09
2023-03-30T06:04:46.596Z,100133.47
2023-03-30T06:07:13.910Z,100141.56
2023-03-30T06:09:40.804Z,100149.50
2023-03-30T06:12:17.053Z,100149.88
2023-03-30T06:14:44.202Z,100129.25
2023-03-30T06:17:31.824Z,100136.19
2023-03-30T06:19:59.063Z,100153.41
2023-03-30T06:22:28.019Z,100161.06
2023-03-30T06:25:23.996Z,100158.47
2023-03-30T06:27:52.374Z,100147.47
2023-03-30T06:30:20.676Z,100169.59
2023-03-30T06:32:51.857Z,100163.75
2023-03-30T06:35:24.351Z,100160.25
2023-03-30T06:37:52.933Z,100154.63
2023-03-30T06:40:21.581Z,100167.25
2023-03-30T06:42:51.706Z,100165.88
2023-03-30T06:45:39.819Z,100180.16
2023-03-30T06:48:07.452Z,100174.53
2023-03-30T06:50:38.753Z,100174.91
2023-03-30T06:53:23.323Z,100184.91
2023-03-30T06:55:57.032Z,100188.16
2023-03-30T06:58:26.250Z,100184.91
2023-03-30T07:00:53.906Z,100174.44
2023-03-30T07:03:45.572Z,100180.44
2023-03-30T07:06:22.707Z,100163.06
2023-03-30T07:08:49.862Z,100155.88
2023-03-30T07:11:22.485Z,100177.69
2023-03-30T07:13:51.185Z,100176.16
2023-03-30T07:16:18.576Z,100157.84
2023-03-30T07:18:47.044Z,100177.66
2023-03-30T07:21:14.413Z,100182.19
2023-03-30T07:23:43.432Z,100171.84
2023-03-30T07:26:19.535Z,100168.09
2023-03-30T07:28:58.494Z,100172.56
2023-03-30T07:31:26.421Z,100151.31
2023-03-30T07:33:54.949Z,100147.53
2023-03-30T07:36:25.088Z,100164.81
2023-03-30T07:38:52.803Z,100176.31
2023-03-30T07:41:20.042Z,100170.31
2023-03-30T07:43:52.389Z,100173.03
2023-03-30T07:46:22.609Z,100164.81
2023-03-30T07:48:52.994Z,100174.38
2023-03-30T07:51:20.316Z,100164.75
2023-03-30T07:54:06.814Z,100158.97
2023-03-30T07:56:53.841Z,100168.31
2023-03-30T07:59:23.745Z,100171.94
2023-03-30T08:01:54.444Z,100163.44
2023-03-30T08:04:56.672Z,100146.47
2023-03-30T08:07:45.023Z,100158.50
2023-03-30T08:10:18.143Z,100144.31
2023-03-30T08:12:44.949Z,100143.72
2023-03-30T08:15:12.216Z,100146.16
2023-03-30T08:17:39.161Z,100149.41
2023-03-30T08:20:10.995Z,100151.56
2023-03-30T08:22:38.347Z,100156.28
2023-03-30T08:25:05.762Z,100150.22
2023-03-30T08:27:33.058Z,100148.03
2023-03-30T08:30:00.376Z,100140.28
2023-03-30T08:32:27.332Z,100141.34
2023-03-30T08:34:55.275Z,100131.47
2023-03-30T08:37:22.864Z,100123.25
2023-03-30T08:39:49.711Z,100140.25
2023-03-30T08:42:31.790Z,100125.94
2023-03-30T08:45:05.507Z,100125.03
2023-03-30T08:47:40.253Z,100122.16
2023-03-30T08:50:36.884Z,100113.47
2023-03-30T08:53:07.401Z,100118.44
2023-03-30T08:55:47.466Z,100123.84
2023-03-30T08:58:32.967Z,100115.94
2023-03-30T09:01:29.392Z,100098.94
2023-03-30T09:04:04.029Z,100105.59
2023-03-30T09:06:49.193Z,100098.16
2023-03-30T09:09:28.695Z,100098.19
2023-03-30T09:12:06.099Z,100101.69
2023-03-30T09:14:37.905Z,100090.59
2023-03-30T09:17:15.381Z,100074.66
2023-03-30T09:19:57.577Z,100075.91
2023-03-30T09:22:41.034Z,100067.41
2023-03-30T09:25:28.213Z,100073.06
2023-03-30T09:28:01.051Z,100083.38
2023-03-30T09:30:41.166Z,100073.47
2023-03-30T09:33:30.936Z,100075.59
2023-03-30T09:36:10.265Z,100067.94
2023-03-30T09:38:41.869Z,100050.38
2023-03-30T09:42:00.237Z,100069.59
2023-03-30T09:44:33.789Z,100059.69
2023-03-30T09:47:02.242Z,100052.22
2023-03-30T09:49:38.308Z,100059.19
2023-03-30T09:52:08.395Z,100050.00
2023-03-30T09:54:40.903Z,99960.03
2023-03-30T09:57:43.398Z,100039.00
2023-03-30T10:00:31.394Z,100040.25
2023-03-30T10:03:04.694Z,100029.53
2023-03-30T10:05:34.135Z,100027.13
2023-03-30T10:08:07.508Z,100024.50
2023-03-30T10:10:36.784Z,100018.50
2023-03-30T10:13:16.699Z,100009.19
2023-03-30T10:15:48.484Z,100007.94
2023-03-30T10:18:18.692Z,100010.22
2023-03-30T10:20:53.691Z,99984.97
2023-03-30T10:23:23.097Z,99993.13
2023-03-30T10:25:52.365Z,99981.56
2023-03-30T10:28:31.560Z,99994.34
2023-03-30T10:31:03.153Z,99972.34
2023-03-30T10:33:31.866Z,99988.72
2023-03-30T10:36:03.589Z,99990.72
2023-03-30T10:38:37.598Z,99984.22
2023-03-30T10:41:17.214Z,99979.53
2023-03-30T10:43:45.264Z,99972.75
2023-03-30T10:46:20.091Z,99974.09
2023-03-30T10:49:02.734Z,99979.91
2023-03-30T10:51:36.168Z,99974.59
2023-03-30T10:54:15.198Z,99974.78
2023-03-30T10:56:49.600Z,99979.84
2023-03-30T11:00:10.925Z,99967.09
2023-03-30T11:02:59.586Z,99959.84
2023-03-30T11:05:35.798Z,99955.59
2023-03-30T11:08:26.048Z,99961.69
2023-03-30T11:10:55.512Z,99951.63
2023-03-30T11:13:29.324Z,99948.84
2023-03-30T11:16:17.078Z,99950.28
2023-03-30T11:18:57.641Z,99945.59
2023-03-30T11:21:30.951Z,99939.69
2023-03-30T11:24:04.799Z,99928.88
2023-03-30T11:26:42.346Z,99918.28
2023-03-30T11:29:48.146Z,99922.56
2023-03-30T11:32:37.739Z,99892.19
2023-03-30T11:35:30.287Z,99921.94
2023-03-30T11:38:03.517Z,99919.50
2023-03-30T11:40:44.281Z,99901.47
2023-03-30T11:43:13.567Z,99902.19
2023-03-30T11:46:16.176Z,99901.56
2023-03-30T11:49:01.390Z,99895.94
2023-03-30T11:51:34.182Z,99884.19
2023-03-30T11:54:22.704Z,99893.28
2023-03-30T11:57:13.346Z,99870.91
2023-03-30T11:59:40.737Z,99878.59
2023-03-30T12:02:26.521Z,99864.34
2023-03-30T12:05:01.512Z,99863.78
2023-03-30T12:07:52.584Z,99866.16
2023-03-30T12:10:32.398Z,99864.09
2023-03-30T12:13:00.744Z,99863.31
2023-03-30T12:16:09.161Z,99858.63
2023-03-30T12:19:06.653Z,99857.94
2023-03-30T12:21:48.492Z,99842.38
2023-03-30T12:24:29.583Z,99842.75
2023-03-30T12:27:05.102Z,99842.53
2023-03-30T12:32:26.349Z,99846.63
2023-03-30T12:34:55.579Z,99841.09
2023-03-30T12:37:28.584Z,99831.25
2023-03-30T12:40:14.780Z,99829.50
2023-03-30T12:42:55.792Z,99822.13
2023-03-30T12:45:32.254Z,99828.00
2023-03-30T12:48:17.069Z,99813.47
2023-03-30T12:51:02.255Z,99820.50
2023-03-30T12:53:41.749Z,99821.19
2023-03-30T12:56:33.351Z,99821.25
2023-03-30T12:59:00.229Z,99820.97
2023-03-30T13:01:46.330Z,99822.63
2023-03-30T13:04:21.816Z,99804.06
2023-03-30T13:06:57.283Z,99806.00
2023-03-30T13:09:27.378Z,99802.78
2023-03-30T13:11:54.409Z,99804.41
2023-03-30T13:14:30.448Z,99800.06
2023-03-30T13:17:00.148Z,99791.81
2023-03-30T13:19:33.161Z,99780.97
2023-03-30T13:22:03.580Z,99771.78
2023-03-30T13:24:30.626Z,99778.50
2023-03-30T13:27:19.489Z,99774.09
2023-03-30T13:30:03.918Z,99770.94
2023-03-30T13:32:40.118Z,99771.28
2023-03-30T13:35:10.122Z,99774.38
2023-03-30T13:37:55.814Z,99758.03
2023-03-30T13:40:41.404Z,99753.97
2023-03-30T13:43:34.072Z,99743.97
2023-03-30T13:46:27.170Z,99738.31
2023-03-30T13:49:03.065Z,99735.38
2023-03-30T13:51:31.838Z,99738.34
2023-03-30T13:54:03.762Z,99729.81
2023-03-30T13:56:33.590Z,99728.03
2023-03-30T13:59:17.093Z,99715.09
2023-03-30T14:01:52.815Z,99713.47
2023-03-30T14:04:20.645Z,99730.75
2023-03-30T14:06:51.398Z,99719.34
2023-03-30T14:09:25.035Z,99720.53
2023-03-30T14:12:02.717Z,99725.06
2023-03-30T14:14:30.101Z,99718.53
2023-03-30T14:17:00.365Z,99718.53
2023-03-30T14:20:11.519Z,99715.97
2023-03-30T14:22:43.168Z,99709.63
2023-03-30T14:25:24.285Z,99708.00
2023-03-30T14:27:51.394Z,99707.03
2023-03-30T14:30:29.733Z,99707.31
2023-03-30T14:33:12.352Z,99713.84
2023-03-30T14:35:46.768Z,99700.31
2023-03-30T14:38:37.438Z,99703.72
2023-03-30T14:41:25.095Z,99704.88
2023-03-30T14:43:56.269Z,99689.31
2023-03-30T14:46:32.625Z,99647.63
2023-03-30T14:48:59.620Z,99700.53
2023-03-30T14:51:37.964Z,99669.88
2023-03-30T14:54:06.701Z,99702.66
2023-03-30T14:56:34.131Z,99686.72
2023-03-30T14:59:01.874Z,99694.19
2023-03-30T15:01:33.445Z,99696.63
2023-03-30T15:04:07.699Z,99672.56
2023-03-30T15:06:36.948Z,99680.00
2023-03-30T15:09:09.910Z,99678.22
2023-03-30T15:11:39.848Z,99678.91
2023-03-30T15:14:09.847Z,99679.53
2023-03-30T15:16:37.900Z,99675.47
2023-03-30T15:19:32.440Z,99679.78
2023-03-30T15:22:03.471Z,99680.56
2023-03-30T15:24:37.590Z,99671.28
2023-03-30T15:27:07.772Z,99672.22
2023-03-30T15:29:34.902Z,99674.44
2023-03-30T15:32:11.596Z,99671.69
2023-03-30T15:35:17.320Z,99672.44
2023-03-30T15:37:56.391Z,99676.97
2023-03-30T15:40:28.703Z,99672.41
2023-03-30T15:43:11.531Z,99664.81
2023-03-30T15:45:38.793Z,99668.19
2023-03-30T15:48:11.820Z,99670.56
2023-03-30T15:50:39.377Z,99655.22
2023-03-30T15:53:13.855Z,99649.63
2023-03-30T15:55:41.530Z,99666.66
2023-03-30T15:58:13.841Z,99616.38
2023-03-30T16:00:42.214Z,99648.44
2023-03-30T16:03:13.031Z,99638.97
2023-03-30T16:05:41.993Z,99644.78
2023-03-30T16:08:08.769Z,99639.25
2023-03-30T16:10:37.616Z,99643.72
2023-03-30T16:13:07.221Z,99647.09
2023-03-30T16:15:34.317Z,99638.25
2023-03-30T16:18:01.230Z,99641.94
2023-03-30T16:20:32.478Z,99632.28
2023-03-30T16:23:04.635Z,99632.19
2023-03-30T16:25:44.202Z,99625.38
2023-03-30T16:28:17.503Z,99627.09
2023-03-30T16:30:48.062Z,99625.91
2023-03-30T16:33:15.429Z,99626.72
2023-03-30T16:35:42.822Z,99625.88
2023-03-30T16:38:16.418Z,99614.25
2023-03-30T16:40:51.427Z,99627.66
2023-03-30T16:43:18.461Z,99623.16
2023-03-30T16:45:45.456Z,99613.47
2023-03-30T16:48:15.171Z,99625.78
2023-03-30T16:50:54.893Z,99622.59
2023-03-30T16:53:22.039Z,99616.31
2023-03-30T16:55:49.395Z,99616.69
2023-03-30T16:58:17.364Z,99614.34
2023-03-30T17:00:49.756Z,99608.56
2023-03-30T17:03:18.204Z,99619.59
2023-03-30T17:05:48.676Z,99630.47
2023-03-30T17:08:27.802Z,99628.16
2023-03-30T17:10:59.713Z,99612.19
2023-03-30T17:13:27.804Z,99627.88
2023-03-30T17:15:54.894Z,99629.13
2023-03-30T17:18:24.135Z,99630.31
2023-03-30T17:20:53.788Z,99631.06
2023-03-30T17:23:23.484Z,99628.19
2023-03-30T17:25:52.075Z,99635.16
2023-03-30T17:28:28.362Z,99633.97
2023-03-30T17:30:58.902Z,99629.50
2023-03-30T17:33:26.447Z,99619.84
2023-03-30T17:35:56.489Z,99629.41
2023-03-30T17:38:24.220Z,99624.56
2023-03-30T17:40:51.581Z,99616.16
2023-03-30T17:43:18.844Z,99618.41
2023-03-30T17:45:47.062Z,99636.50
2023-03-30T17:48:17.712Z,99631.91
2023-03-30T17:50:47.286Z,99641.00
2023-03-30T17:53:39.404Z,99636.63
2023-03-30T17:56:07.765Z,99630.19
2023-03-30T17:58:36.441Z,99621.50
2023-03-30T18:01:06.906Z,99622.59
2023-03-30T18:03:35.307Z,99620.44
2023-03-30T18:06:02.720Z,99613.09
2023-03-30T18:08:29.627Z,99616.69
2023-03-30T18:10:58.719Z,99615.59
2023-03-30T18:13:27.686Z,99615.34
2023-03-30T18:15:56.214Z,99607.75
2023-03-30T18:18:26.353Z,99611.59
2023-03-30T18:20:59.231Z,99617.31
2023-03-30T18:23:26.226Z,99602.84
2023-03-30T18:25:53.174Z,99589.50
2023-03-30T18:28:25.505Z,99588.69
2023-03-30T18:30:55.390Z,99614.06
2023-03-30T18:33:27.852Z,99601.50
2023-03-30T18:35:57.201Z,99597.69
2023-03-30T18:38:25.258Z,99585.69
2023-03-30T18:40:58.543Z,99595.53
2023-03-30T18:43:28.758Z,99586.28
2023-03-30T18:46:01.080Z,99598.56
2023-03-30T18:48:29.086Z,99588.19
2023-03-30T18:50:57.099Z,99594.44
2023-03-30T18:53:27.245Z,99581.06
2023-03-30T18:56:00.680Z,99601.50
2023-03-30T18:58:31.469Z,99599.28
2023-03-30T19:00:58.370Z,99602.00
2023-03-30T19:03:28.073Z,99596.28
2023-03-30T19:05:54.912Z,99597.06
2023-03-30T19:08:24.119Z,99587.25
2023-03-30T19:10:53.244Z,99584.53
2023-03-30T19:13:21.526Z,99572.50
2023-03-30T19:15:49.826Z,99586.09
2023-03-30T19:18:18.003Z,99590.97
2023-03-30T19:20:50.008Z,99585.78
2023-03-30T19:23:31.011Z,99577.91
2023-03-30T19:26:07.536Z,99580.06
2023-03-30T19:28:34.766Z,99575.94
2023-03-30T19:31:13.362Z,99572.34
2023-03-30T19:33:40.696Z,99579.94
2023-03-30T19:36:08.295Z,99550.50
2023-03-30T19:38:35.914Z,99566.31
2023-03-30T19:41:04.759Z,99562.22
2023-03-30T19:43:31.966Z,99573.34
2023-03-30T19:45:58.917Z,99548.34
2023-03-30T19:48:27.682Z,99561.97
2023-03-30T19:50:54.474Z,99555.97
2023-03-30T19:53:21.800Z,99550.59
2023-03-30T19:55:48.556Z,99539.97
2023-03-30T19:58:15.502Z,99540.03
2023-03-30T20:00:43.851Z,99538.66
2023-03-30T20:03:12.588Z,99538.13
2023-03-30T20:05:39.908Z,99530.47
2023-03-30T20:08:17.272Z,99538.13
2023-03-30T20:10:49.354Z,99530.50
2023-03-30T20:13:17.225Z,99528.88
2023-03-30T20:15:45.352Z,99526.44
2023-03-30T20:18:12.275Z,99534.38
2023-03-30T20:20:39.353Z,99503.81
2023-03-30T20:23:06.347Z,99508.44
2023-03-30T20:25:33.256Z,99489.34
2023-03-30T20:28:00.239Z,99501.34
2023-03-30T20:30:27.188Z,99490.44
2023-03-30T20:33:06.809Z,99480.97
2023-03-30T20:35:38.956Z,99482.06
2023-03-30T20:38:08.319Z,99472.78
2023-03-30T20:40:36.050Z,99476.59
2023-03-30T20:43:03.686Z,99470.34
2023-03-30T20:45:31.878Z,99470.63
2023-03-30T20:47:59.842Z,99476.09
2023-03-30T20:50:27.325Z,99461.38
2023-03-30T20:52:54.133Z,99466.31
2023-03-30T20:55:21.481Z,99471.47
2023-03-30T20:57:48.552Z,99464.66
2023-03-30T21:00:15.996Z,99453.78
2023-03-30T21:02:46.788Z,99463.88
2023-03-30T21:05:14.450Z,99456.78
2023-03-30T21:07:42.369Z,99448.06
2023-03-30T21:10:09.997Z,99455.97
2023-03-30T21:12:36.878Z,99451.59
2023-03-30T21:15:04.028Z,99445.03
2023-03-30T21:17:31.063Z,99441.78
2023-03-30T21:19:57.827Z,99433.06
2023-03-30T21:22:25.235Z,99429.25
2023-03-30T21:24:53.001Z,99447.50
2023-03-30T21:27:19.774Z,99427.59
2023-03-30T21:29:47.234Z,99418.63
2023-03-30T21:32:14.188Z,99419.97
2023-03-30T21:34:41.104Z,99427.59
2023-03-30T21:37:09.105Z,99427.59
2023-03-30T21:39:36.243Z,99416.97
2023-03-30T21:42:05.231Z,99431.13
2023-03-30T21:44:36.024Z,99417.75
2023-03-30T21:47:03.239Z,99407.69
2023-03-30T21:49:30.078Z,99407.41
2023-03-30T21:51:57.050Z,99410.41
2023-03-30T21:54:24.456Z,99406.31
2023-03-30T21:56:51.343Z,99403.84
2023-03-30T21:59:18.985Z,99398.41
2023-03-30T22:01:46.091Z,99399.78
2023-03-30T22:04:12.946Z,99392.69
2023-03-30T22:06:39.783Z,99399.22
2023-03-30T22:09:06.854Z,99379.63
2023-03-30T22:11:33.776Z,99374.16
2023-03-30T22:14:00.840Z,99384.50
2023-03-30T22:16:31.613Z,99390.50
2023-03-30T22:18:58.960Z,99382.31
2023-03-30T22:21:34.606Z,99394.59
2023-03-30T22:24:07.248Z,99387.22
2023-03-30T22:26:35.978Z,99385.06
2023-03-30T22:29:04.269Z,99371.44
2023-03-30T22:31:31.236Z,99355.09
2023-03-30T22:33:58.258Z,99362.69
2023-03-30T22:36:30.004Z,99349.06
2023-03-30T22:38:59.121Z,99371.94
2023-03-30T22:41:36.440Z,99370.81
2023-03-30T22:44:03.948Z,99367.00
2023-03-30T22:46:37.203Z,99374.09
2023-03-30T22:49:08.973Z,99355.31
2023-03-30T22:51:39.118Z,99370.03
2023-03-30T22:54:06.434Z,99357.22
2023-03-30T22:56:33.396Z,99358.31
2023-03-30T22:59:01.343Z,99349.59
2023-03-30T23:01:32.089Z,99349.88
2023-03-30T23:03:59.997Z,99338.19
2023-03-30T23:06:27.203Z,99341.69
2023-03-30T23:08:54.618Z,99320.72
2023-03-30T23:11:21.696Z,99317.97
2023-03-30T23:13:49.566Z,99312.00
2023-03-30T23:16:16.530Z,99330.50
2023-03-30T23:18:43.348Z,99320.44
2023-03-30T23:21:11.176Z,99315.56
2023-03-30T23:23:38.531Z,99317.19
2023-03-30T23:26:09.722Z,99316.94
2023-03-30T23:28:39.532Z,99310.97
2023-03-30T23:31:12.264Z,99306.56
2023-03-30T23:33:41.103Z,99308.22
2023-03-30T23:36:09.065Z,99317.78
2023-03-30T23:38:37.592Z,99309.06
2023-03-30T23:41:06.423Z,99299.03
2023-03-30T23:43:33.249Z,99287.09
2023-03-30T23:46:00.213Z,99296.88
2023-03-30T23:48:27.117Z,99281.09
2023-03-30T23:50:54.066Z,99251.16
2023-03-30T23:53:21.050Z,99269.38
2023-03-30T23:55:50.069Z,99262.84
2023-03-30T23:58:18.314Z,99271.31
